Terminal Aerodrome Forecast
Issued by NWS

Home | Current Version | Previous Version | Text Only | Print | Product List | Glossary On
Versions: 1 2 3 4 5 6 7 8 9 10 11 12 13 14 15
000
FTUS42 KMLB 090539
TAFSUA
TAF
KSUA 090539Z 0906/1006 36010KT P6SM SCT070 SCT090 BKN110
     FM090800 36011KT P6SM VCSH SCT045 OVC080
     FM091500 36011KT P6SM -SHRA SCT040 OVC100=

USA.gov is the U.S. government's official web portal to all federal, state and local government web resources and services.